sensor_id;sensor_type;location;lat;lon;timestamp;P1;durP1;ratioP1;P2;durP2;ratioP2
65063;SDS011;51654;51.452;6.644;2023-04-25T21:31:56;77.90;;;16.57;;
65063;SDS011;51654;51.452;6.644;2023-04-25T21:34:24;67.57;;;16.40;;
65063;SDS011;51654;51.452;6.644;2023-04-25T21:36:51;75.80;;;17.37;;
65063;SDS011;51654;51.452;6.644;2023-04-25T21:39:19;9.97;;;4.10;;
65063;SDS011;51654;51.452;6.644;2023-04-25T21:41:46;35.07;;;9.23;;
65063;SDS011;51654;51.452;6.644;2023-04-25T21:44:13;8.57;;;3.93;;
65063;SDS011;51654;51.452;6.644;2023-04-25T21:46:41;6.13;;;2.53;;
65063;SDS011;51654;51.452;6.644;2023-04-25T21:49:08;13.53;;;3.13;;
65063;SDS011;51654;51.452;6.644;2023-04-25T21:51:36;9.87;;;3.67;;
65063;SDS011;51654;51.452;6.644;2023-04-25T21:54:04;8.47;;;2.57;;
65063;SDS011;51654;51.452;6.644;2023-04-25T21:56:32;10.70;;;2.80;;
65063;SDS011;51654;51.452;6.644;2023-04-25T21:58:59;6.03;;;3.57;;
65063;SDS011;51654;51.452;6.644;2023-04-25T22:01:26;12.87;;;3.50;;
65063;SDS011;51654;51.452;6.644;2023-04-25T22:03:54;9.93;;;4.07;;
65063;SDS011;51654;51.452;6.644;2023-04-25T22:06:21;7.90;;;3.13;;
65063;SDS011;51654;51.452;6.644;2023-04-25T22:08:49;7.90;;;4.10;;
65063;SDS011;51654;51.452;6.644;2023-04-25T22:11:16;2.93;;;2.07;;
65063;SDS011;51654;51.452;6.644;2023-04-25T22:13:43;5.33;;;2.80;;
65063;SDS011;51654;51.452;6.644;2023-04-25T22:16:12;7.40;;;2.30;;
65063;SDS011;51654;51.452;6.644;2023-04-25T22:18:39;7.50;;;3.33;;
65063;SDS011;51654;51.452;6.644;2023-04-25T22:21:07;3.30;;;1.93;;
65063;SDS011;51654;51.452;6.644;2023-04-25T22:23:35;6.93;;;2.30;;
65063;SDS011;51654;51.452;6.644;2023-04-25T22:26:02;27.93;;;2.50;;
65063;SDS011;51654;51.452;6.644;2023-04-25T22:28:30;6.27;;;3.20;;
65063;SDS011;51654;51.452;6.644;2023-04-25T22:30:58;3.63;;;2.13;;
65063;SDS011;51654;51.452;6.644;2023-04-25T22:33:25;2.47;;;2.23;;
65063;SDS011;51654;51.452;6.644;2023-04-25T22:35:53;4.00;;;1.87;;
65063;SDS011;51654;51.452;6.644;2023-04-25T22:38:20;7.20;;;2.50;;
65063;SDS011;51654;51.452;6.644;2023-04-25T22:40:48;30.73;;;9.90;;
65063;SDS011;51654;51.452;6.644;2023-04-25T22:43:15;107.80;;;33.10;;
65063;SDS011;51654;51.452;6.644;2023-04-25T22:45:42;102.37;;;33.23;;
65063;SDS011;51654;51.452;6.644;2023-04-25T22:48:10;82.57;;;27.90;;
65063;SDS011;51654;51.452;6.644;2023-04-25T22:50:37;11.10;;;5.47;;
65063;SDS011;51654;51.452;6.644;2023-04-25T22:53:06;6.60;;;2.73;;
65063;SDS011;51654;51.452;6.644;2023-04-25T22:55:35;15.43;;;5.10;;
65063;SDS011;51654;51.452;6.644;2023-04-25T23:00:31;9.00;;;4.20;;
65063;SDS011;51654;51.452;6.644;2023-04-25T23:02:59;9.47;;;4.20;;
65063;SDS011;51654;51.452;6.644;2023-04-25T23:05:29;15.57;;;4.33;;
65063;SDS011;51654;51.452;6.644;2023-04-25T23:07:58;14.50;;;5.90;;
65063;SDS011;51654;51.452;6.644;2023-04-25T23:10:26;9.70;;;4.00;;
65063;SDS011;51654;51.452;6.644;2023-04-25T23:12:53;38.90;;;7.30;;
65063;SDS011;51654;51.452;6.644;2023-04-25T23:15:26;31.03;;;6.20;;
65063;SDS011;51654;51.452;6.644;2023-04-25T23:17:56;23.80;;;3.73;;
65063;SDS011;51654;51.452;6.644;2023-04-25T23:20:24;11.93;;;3.43;;
65063;SDS011;51654;51.452;6.644;2023-04-25T23:22:51;11.37;;;2.90;;
65063;SDS011;51654;51.452;6.644;2023-04-25T23:25:20;6.37;;;3.47;;
65063;SDS011;51654;51.452;6.644;2023-04-25T23:27:47;13.10;;;3.27;;
65063;SDS011;51654;51.452;6.644;2023-04-25T23:30:15;14.07;;;2.97;;
65063;SDS011;51654;51.452;6.644;2023-04-25T23:32:42;27.23;;;6.33;;
65063;SDS011;51654;51.452;6.644;2023-04-25T23:35:09;19.10;;;4.10;;
65063;SDS011;51654;51.452;6.644;2023-04-25T23:37:37;10.30;;;4.07;;
65063;SDS011;51654;51.452;6.644;2023-04-25T23:40:08;14.27;;;3.70;;
65063;SDS011;51654;51.452;6.644;2023-04-25T23:42:36;8.30;;;3.00;;
65063;SDS011;51654;51.452;6.644;2023-04-25T23:45:04;3.40;;;2.90;;
65063;SDS011;51654;51.452;6.644;2023-04-25T23:47:32;14.33;;;3.47;;
65063;SDS011;51654;51.452;6.644;2023-04-25T23:49:59;6.53;;;2.80;;
65063;SDS011;51654;51.452;6.644;2023-04-25T23:52:27;5.67;;;3.30;;
65063;SDS011;51654;51.452;6.644;2023-04-25T23:54:54;20.07;;;3.13;;
65063;SDS011;51654;51.452;6.644;2023-04-25T23:57:21;6.50;;;2.97;;
65063;SDS011;51654;51.452;6.644;2023-04-25T23:59:49;1.97;;;1.83;;
